sensor_id;sensor_type;location;lat;lon;timestamp;pressure;altitude;pressure_sealevel;temperature;humidity
72892;BME280;61032;50.782;6.818;2023-02-26T00:00:29;100532.03;;;2.69;59.48
72892;BME280;61032;50.782;6.818;2023-02-26T00:01:31;100523.63;;;2.65;59.11
72892;BME280;61032;50.782;6.818;2023-02-26T00:02:31;100529.53;;;2.72;59.20
72892;BME280;61032;50.782;6.818;2023-02-26T00:03:32;100530.03;;;2.85;59.07
72892;BME280;61032;50.782;6.818;2023-02-26T00:04:32;100522.19;;;2.78;59.11
72892;BME280;61032;50.782;6.818;2023-02-26T00:05:32;100530.34;;;2.78;58.77
72892;BME280;61032;50.782;6.818;2023-02-26T00:06:36;100519.22;;;2.74;59.06
72892;BME280;61032;50.782;6.818;2023-02-26T00:07:37;100527.91;;;2.76;58.93
72892;BME280;61032;50.782;6.818;2023-02-26T00:08:38;100527.38;;;2.74;58.69
72892;BME280;61032;50.782;6.818;2023-02-26T00:09:38;100521.38;;;2.83;58.97
72892;BME280;61032;50.782;6.818;2023-02-26T00:10:38;100525.41;;;2.90;58.34
72892;BME280;61032;50.782;6.818;2023-02-26T00:11:39;100536.56;;;2.79;58.79
72892;BME280;61032;50.782;6.818;2023-02-26T00:12:39;100528.97;;;2.81;58.98
72892;BME280;61032;50.782;6.818;2023-02-26T00:13:41;100536.03;;;2.76;59.46
72892;BME280;61032;50.782;6.818;2023-02-26T00:14:42;100537.66;;;2.78;59.70
72892;BME280;61032;50.782;6.818;2023-02-26T00:15:43;100533.91;;;2.68;59.55
72892;BME280;61032;50.782;6.818;2023-02-26T00:16:47;100533.66;;;2.65;59.96
72892;BME280;61032;50.782;6.818;2023-02-26T00:18:56;100545.81;;;2.72;59.75
72892;BME280;61032;50.782;6.818;2023-02-26T00:19:58;100539.03;;;2.75;59.51
72892;BME280;61032;50.782;6.818;2023-02-26T00:20:59;100549.63;;;2.71;59.81
72892;BME280;61032;50.782;6.818;2023-02-26T00:21:59;100551.25;;;2.72;59.54
72892;BME280;61032;50.782;6.818;2023-02-26T00:23:00;100555.63;;;2.68;59.96
72892;BME280;61032;50.782;6.818;2023-02-26T00:24:00;100546.63;;;2.73;59.87
72892;BME280;61032;50.782;6.818;2023-02-26T00:25:01;100558.31;;;2.73;59.76
72892;BME280;61032;50.782;6.818;2023-02-26T00:26:01;100563.19;;;2.76;59.79
72892;BME280;61032;50.782;6.818;2023-02-26T00:27:02;100565.88;;;2.82;59.57
72892;BME280;61032;50.782;6.818;2023-02-26T00:28:02;100562.91;;;2.83;59.60
72892;BME280;61032;50.782;6.818;2023-02-26T00:29:03;100565.91;;;2.71;59.79
72892;BME280;61032;50.782;6.818;2023-02-26T00:30:05;100564.00;;;2.72;60.46
72892;BME280;61032;50.782;6.818;2023-02-26T00:31:06;100566.97;;;2.75;59.98
72892;BME280;61032;50.782;6.818;2023-02-26T00:32:07;100565.34;;;2.74;59.98
72892;BME280;61032;50.782;6.818;2023-02-26T00:33:08;100566.47;;;2.68;59.89
72892;BME280;61032;50.782;6.818;2023-02-26T00:34:11;100571.38;;;2.61;60.53
72892;BME280;61032;50.782;6.818;2023-02-26T00:35:14;100570.03;;;2.64;60.14
72892;BME280;61032;50.782;6.818;2023-02-26T00:39:06;100571.88;;;2.73;60.13
72892;BME280;61032;50.782;6.818;2023-02-26T00:40:19;100577.81;;;2.86;59.92
72892;BME280;61032;50.782;6.818;2023-02-26T00:41:20;100571.25;;;2.92;59.73
72892;BME280;61032;50.782;6.818;2023-02-26T00:42:20;100582.13;;;2.92;59.43
72892;BME280;61032;50.782;6.818;2023-02-26T00:43:23;100576.94;;;3.00;59.21
72892;BME280;61032;50.782;6.818;2023-02-26T00:44:24;100580.72;;;3.09;59.39
72892;BME280;61032;50.782;6.818;2023-02-26T00:45:24;100586.44;;;3.03;59.24
72892;BME280;61032;50.782;6.818;2023-02-26T00:46:48;100579.41;;;2.97;59.44
72892;BME280;61032;50.782;6.818;2023-02-26T00:48:16;100581.53;;;3.05;59.65
72892;BME280;61032;50.782;6.818;2023-02-26T00:50:25;100592.63;;;3.14;58.92
72892;BME280;61032;50.782;6.818;2023-02-26T00:51:48;100590.72;;;3.14;59.27
72892;BME280;61032;50.782;6.818;2023-02-26T00:54:11;100595.59;;;3.17;59.30
72892;BME280;61032;50.782;6.818;2023-02-26T00:55:14;100595.59;;;3.17;58.81
72892;BME280;61032;50.782;6.818;2023-02-26T00:56:14;100591.50;;;3.20;59.50
72892;BME280;61032;50.782;6.818;2023-02-26T00:57:15;100591.25;;;3.21;59.18
72892;BME280;61032;50.782;6.818;2023-02-26T00:58:15;100595.88;;;3.16;58.89
72892;BME280;61032;50.782;6.818;2023-02-26T00:59:16;100590.72;;;3.14;59.04
72892;BME280;61032;50.782;6.818;2023-02-26T01:00:17;100582.09;;;3.07;58.98
72892;BME280;61032;50.782;6.818;2023-02-26T01:01:18;100593.50;;;3.04;59.57
72892;BME280;61032;50.782;6.818;2023-02-26T01:02:18;100595.13;;;3.05;59.89
72892;BME280;61032;50.782;6.818;2023-02-26T01:03:19;100587.47;;;3.12;58.96
72892;BME280;61032;50.782;6.818;2023-02-26T01:04:21;100595.06;;;3.15;59.40
72892;BME280;61032;50.782;6.818;2023-02-26T01:05:22;100590.72;;;3.14;59.10
72892;BME280;61032;50.782;6.818;2023-02-26T01:06:24;100598.88;;;3.14;59.38
72892;BME280;61032;50.782;6.818;2023-02-26T01:07:27;100591.31;;;3.11;58.89
72892;BME280;61032;50.782;6.818;2023-02-26T01:08:33;100595.88;;;3.16;58.89
72892;BME280;61032;50.782;6.818;2023-02-26T01:09:39;100595.94;;;3.05;59.28
72892;BME280;61032;50.782;6.818;2023-02-26T01:10:40;100599.72;;;3.09;59.05
72892;BME280;61032;50.782;6.818;2023-02-26T01:11:41;100607.59;;;3.11;59.34
72892;BME280;61032;50.782;6.818;2023-02-26T01:12:41;100603.53;;;3.08;59.09
72892;BME280;61032;50.782;6.818;2023-02-26T01:13:42;100608.91;;;3.14;59.27
72892;BME280;61032;50.782;6.818;2023-02-26T01:14:43;100605.91;;;3.20;58.92
72892;BME280;61032;50.782;6.818;2023-02-26T01:15:50;100614.63;;;3.17;59.29
72892;BME280;61032;50.782;6.818;2023-02-26T01:18:05;100608.91;;;3.14;59.32
72892;BME280;61032;50.782;6.818;2023-02-26T01:19:16;100618.97;;;3.13;58.53
72892;BME280;61032;50.782;6.818;2023-02-26T01:20:22;100613.84;;;3.12;58.88
72892;BME280;61032;50.782;6.818;2023-02-26T01:21:31;100616.84;;;3.10;58.98
72892;BME280;61032;50.782;6.818;2023-02-26T01:22:42;100620.09;;;3.02;59.18
72892;BME280;61032;50.782;6.818;2023-02-26T01:23:49;100619.31;;;2.91;59.77
72892;BME280;61032;50.782;6.818;2023-02-26T01:25:00;100619.56;;;2.95;59.28
72892;BME280;61032;50.782;6.818;2023-02-26T01:26:10;100619.06;;;2.88;59.60
72892;BME280;61032;50.782;6.818;2023-02-26T01:27:12;100623.69;;;2.82;60.14
72892;BME280;61032;50.782;6.818;2023-02-26T01:28:12;100625.59;;;2.82;60.42
72892;BME280;61032;50.782;6.818;2023-02-26T01:29:13;100619.06;;;2.88;60.09
72892;BME280;61032;50.782;6.818;2023-02-26T01:30:13;100615.00;;;2.90;60.24
72892;BME280;61032;50.782;6.818;2023-02-26T01:31:46;100616.59;;;2.96;60.26
72892;BME280;61032;50.782;6.818;2023-02-26T01:34:18;100614.75;;;2.82;60.29
72892;BME280;61032;50.782;6.818;2023-02-26T01:36:35;100616.91;;;2.85;60.02
72892;BME280;61032;50.782;6.818;2023-02-26T01:39:24;100623.16;;;2.75;60.84
72892;BME280;61032;50.782;6.818;2023-02-26T01:42:12;100621.81;;;2.72;60.63
72892;BME280;61032;50.782;6.818;2023-02-26T01:43:19;100626.16;;;2.79;61.05
72892;BME280;61032;50.782;6.818;2023-02-26T01:44:47;100612.03;;;2.87;60.52
72892;BME280;61032;50.782;6.818;2023-02-26T01:48:37;100627.19;;;2.93;60.01
72892;BME280;61032;50.782;6.818;2023-02-26T01:49:39;100620.41;;;2.95;59.83
72892;BME280;61032;50.782;6.818;2023-02-26T01:50:39;100621.75;;;2.93;59.97
72892;BME280;61032;50.782;6.818;2023-02-26T01:51:44;100617.13;;;2.98;60.11
72892;BME280;61032;50.782;6.818;2023-02-26T01:53:48;100620.44;;;2.90;59.90
72892;BME280;61032;50.782;6.818;2023-02-26T01:54:48;100625.59;;;2.87;59.96
72892;BME280;61032;50.782;6.818;2023-02-26T01:55:53;100613.38;;;2.84;60.00
72892;BME280;61032;50.782;6.818;2023-02-26T01:57:11;100619.06;;;2.88;60.56
72892;BME280;61032;50.782;6.818;2023-02-26T01:58:13;100612.03;;;2.87;60.26
72892;BME280;61032;50.782;6.818;2023-02-26T01:59:15;100622.34;;;2.85;60.09
72892;BME280;61032;50.782;6.818;2023-02-26T02:00:19;100613.66;;;2.88;60.13
72892;BME280;61032;50.782;6.818;2023-02-26T02:01:20;100609.59;;;2.85;60.57
72892;BME280;61032;50.782;6.818;2023-02-26T02:02:21;100612.56;;;2.79;60.57
72892;BME280;61032;50.782;6.818;2023-02-26T02:03:25;100614.19;;;2.85;60.12
72892;BME280;61032;50.782;6.818;2023-02-26T02:04:27;100620.72;;;2.73;60.65
72892;BME280;61032;50.782;6.818;2023-02-26T02:05:38;100610.41;;;2.75;60.44
72892;BME280;61032;50.782;6.818;2023-02-26T02:06:42;100606.34;;;2.78;60.35
72892;BME280;61032;50.782;6.818;2023-02-26T02:07:42;100608.78;;;2.74;60.32
72892;BME280;61032;50.782;6.818;2023-02-26T02:08:43;100613.66;;;2.72;60.86
72892;BME280;61032;50.782;6.818;2023-02-26T02:09:43;100612.03;;;2.76;60.90
72892;BME280;61032;50.782;6.818;2023-02-26T02:10:45;100607.19;;;2.63;60.67
72892;BME280;61032;50.782;6.818;2023-02-26T02:14:05;100606.69;;;2.46;60.94
72892;BME280;61032;50.782;6.818;2023-02-26T02:15:17;100606.69;;;2.41;61.53
72892;BME280;61032;50.782;6.818;2023-02-26T02:16:30;100608.31;;;2.42;61.85
72892;BME280;61032;50.782;6.818;2023-02-26T02:17:51;100602.06;;;2.41;61.98
72892;BME280;61032;50.782;6.818;2023-02-26T02:24:03;100604.81;;;2.21;61.91
72892;BME280;61032;50.782;6.818;2023-02-26T02:27:48;100603.97;;;2.36;62.98
72892;BME280;61032;50.782;6.818;2023-02-26T02:30:38;100610.72;;;2.54;62.41
72892;BME280;61032;50.782;6.818;2023-02-26T02:31:49;100610.72;;;2.59;62.25
72892;BME280;61032;50.782;6.818;2023-02-26T02:33:00;100617.25;;;2.63;61.69
72892;BME280;61032;50.782;6.818;2023-02-26T02:34:28;100610.19;;;2.62;62.20
72892;BME280;61032;50.782;6.818;2023-02-26T02:35:39;100615.88;;;2.60;62.14
72892;BME280;61032;50.782;6.818;2023-02-26T02:36:52;100617.25;;;2.53;62.33
72892;BME280;61032;50.782;6.818;2023-02-26T02:38:14;100619.94;;;2.58;62.22
72892;BME280;61032;50.782;6.818;2023-02-26T02:39:23;100623.47;;;2.63;61.78
72892;BME280;61032;50.782;6.818;2023-02-26T02:40:28;100626.47;;;2.67;61.51
72892;BME280;61032;50.782;6.818;2023-02-26T02:41:34;100627.50;;;2.71;61.72
72892;BME280;61032;50.782;6.818;2023-02-26T02:42:43;100624.03;;;2.65;61.40
72892;BME280;61032;50.782;6.818;2023-02-26T02:43:45;100628.63;;;2.60;61.75
72892;BME280;61032;50.782;6.818;2023-02-26T02:44:52;100634.06;;;2.65;61.62
72892;BME280;61032;50.782;6.818;2023-02-26T02:46:00;100637.84;;;2.64;61.48
72892;BME280;61032;50.782;6.818;2023-02-26T02:47:03;100631.06;;;2.51;61.73
72892;BME280;61032;50.782;6.818;2023-02-26T02:48:20;100635.44;;;2.47;62.22
72892;BME280;61032;50.782;6.818;2023-02-26T02:49:29;100632.72;;;2.57;61.68
72892;BME280;61032;50.782;6.818;2023-02-26T02:50:43;100640.31;;;2.55;61.95
72892;BME280;61032;50.782;6.818;2023-02-26T02:51:51;100639.50;;;2.50;62.30
72892;BME280;61032;50.782;6.818;2023-02-26T02:52:57;100640.31;;;2.50;62.19
72892;BME280;61032;50.782;6.818;2023-02-26T02:54:13;100643.59;;;2.47;62.33
72892;BME280;61032;50.782;6.818;2023-02-26T02:55:20;100642.50;;;2.48;61.93
72892;BME280;61032;50.782;6.818;2023-02-26T02:56:27;100653.88;;;2.50;62.39
72892;BME280;61032;50.782;6.818;2023-02-26T02:57:33;100659.28;;;2.50;62.13
72892;BME280;61032;50.782;6.818;2023-02-26T02:58:41;100647.34;;;2.51;62.15
72892;BME280;61032;50.782;6.818;2023-02-26T02:59:45;100651.69;;;2.52;62.10
72892;BME280;61032;50.782;6.818;2023-02-26T03:00:54;100654.72;;;2.46;62.09
72892;BME280;61032;50.782;6.818;2023-02-26T03:02:10;100648.47;;;2.40;62.79
72892;BME280;61032;50.782;6.818;2023-02-26T03:03:34;100647.91;;;2.33;62.71
72892;BME280;61032;50.782;6.818;2023-02-26T03:04:36;100650.09;;;2.36;63.15
72892;BME280;61032;50.782;6.818;2023-02-26T03:05:37;100649.56;;;2.39;62.96
72892;BME280;61032;50.782;6.818;2023-02-26T03:06:38;100649.00;;;2.42;62.68
72892;BME280;61032;50.782;6.818;2023-02-26T03:07:51;100646.56;;;2.40;62.79
72892;BME280;61032;50.782;6.818;2023-02-26T03:08:53;100652.53;;;2.37;62.86
72892;BME280;61032;50.782;6.818;2023-02-26T03:09:53;100656.06;;;2.33;62.46
72892;BME280;61032;50.782;6.818;2023-02-26T03:10:54;100656.88;;;2.33;62.91
72892;BME280;61032;50.782;6.818;2023-02-26T03:11:54;100658.78;;;2.28;62.76
72892;BME280;61032;50.782;6.818;2023-02-26T03:12:54;100660.13;;;2.25;63.23
72892;BME280;61032;50.782;6.818;2023-02-26T03:13:55;100664.72;;;2.30;63.56
72892;BME280;61032;50.782;6.818;2023-02-26T03:14:57;100662.56;;;2.37;63.10
72892;BME280;61032;50.782;6.818;2023-02-26T03:17:31;100663.38;;;2.22;62.84
72892;BME280;61032;50.782;6.818;2023-02-26T03:18:56;100669.09;;;2.21;63.54
72892;BME280;61032;50.782;6.818;2023-02-26T03:20:10;100665.28;;;2.22;63.06
72892;BME280;61032;50.782;6.818;2023-02-26T03:25:22;100671.50;;;2.12;63.70
72892;BME280;61032;50.782;6.818;2023-02-26T03:26:30;100671.50;;;2.12;63.46
72892;BME280;61032;50.782;6.818;2023-02-26T03:28:00;100676.13;;;2.17;62.97
72892;BME280;61032;50.782;6.818;2023-02-26T03:29:12;100670.97;;;2.10;63.27
72892;BME280;61032;50.782;6.818;2023-02-26T03:30:19;100679.38;;;2.14;63.17
72892;BME280;61032;50.782;6.818;2023-02-26T03:31:34;100675.03;;;2.13;63.29
72892;BME280;61032;50.782;6.818;2023-02-26T03:33:53;100689.69;;;2.06;63.47
72892;BME280;61032;50.782;6.818;2023-02-26T03:35:17;100688.28;;;1.89;63.22
72892;BME280;61032;50.782;6.818;2023-02-26T03:37:49;100689.91;;;1.90;64.23
72892;BME280;61032;50.782;6.818;2023-02-26T03:39:07;100688.53;;;1.82;63.90
72892;BME280;61032;50.782;6.818;2023-02-26T03:40:11;100690.69;;;1.75;64.58
72892;BME280;61032;50.782;6.818;2023-02-26T03:41:24;100692.88;;;1.83;63.80
72892;BME280;61032;50.782;6.818;2023-02-26T03:42:39;100695.06;;;1.81;64.63
72892;BME280;61032;50.782;6.818;2023-02-26T03:43:45;100704.28;;;1.90;64.08
72892;BME280;61032;50.782;6.818;2023-02-26T03:44:54;100696.16;;;1.85;64.27
72892;BME280;61032;50.782;6.818;2023-02-26T03:45:59;100696.66;;;1.87;64.09
72892;BME280;61032;50.782;6.818;2023-02-26T03:47:06;100696.66;;;1.87;64.30
72892;BME280;61032;50.782;6.818;2023-02-26T03:48:09;100692.91;;;1.93;63.94
72892;BME280;61032;50.782;6.818;2023-02-26T03:49:22;100697.28;;;2.04;63.82
72892;BME280;61032;50.782;6.818;2023-02-26T03:50:35;100699.44;;;2.02;63.28
72892;BME280;61032;50.782;6.818;2023-02-26T03:51:39;100699.97;;;1.99;64.18
72892;BME280;61032;50.782;6.818;2023-02-26T03:52:43;100699.94;;;1.89;63.77
72892;BME280;61032;50.782;6.818;2023-02-26T03:53:53;100703.72;;;1.88;63.77
72892;BME280;61032;50.782;6.818;2023-02-26T03:55:05;100706.44;;;1.93;64.02
72892;BME280;61032;50.782;6.818;2023-02-26T03:56:23;100701.03;;;1.83;64.63
72892;BME280;61032;50.782;6.818;2023-02-26T03:57:25;100703.72;;;1.88;64.38
72892;BME280;61032;50.782;6.818;2023-02-26T03:58:26;100711.03;;;1.88;64.07
72892;BME280;61032;50.782;6.818;2023-02-26T03:59:26;100713.75;;;1.88;63.81
72892;BME280;61032;50.782;6.818;2023-02-26T04:00:27;100708.56;;;1.76;64.36
72892;BME280;61032;50.782;6.818;2023-02-26T04:01:47;100726.19;;;1.73;64.45
72892;BME280;61032;50.782;6.818;2023-02-26T04:03:03;100727.53;;;1.76;64.68
72892;BME280;61032;50.782;6.818;2023-02-26T04:04:11;100732.38;;;1.69;64.51
72892;BME280;61032;50.782;6.818;2023-02-26T04:05:19;100733.78;;;1.77;64.78
72892;BME280;61032;50.782;6.818;2023-02-26T04:06:21;100731.63;;;1.79;64.55
72892;BME280;61032;50.782;6.818;2023-02-26T04:07:22;100737.00;;;1.68;65.11
72892;BME280;61032;50.782;6.818;2023-02-26T04:08:23;100733.47;;;1.68;64.78
72892;BME280;61032;50.782;6.818;2023-02-26T04:09:23;100736.22;;;1.78;64.60
72892;BME280;61032;50.782;6.818;2023-02-26T04:10:30;100734.09;;;1.90;63.65
72892;BME280;61032;50.782;6.818;2023-02-26T04:11:32;100740.84;;;1.83;63.76
72892;BME280;61032;50.782;6.818;2023-02-26T04:12:34;100741.66;;;1.78;64.34
72892;BME280;61032;50.782;6.818;2023-02-26T04:13:34;100738.91;;;1.73;64.58
72892;BME280;61032;50.782;6.818;2023-02-26T04:14:35;100733.75;;;1.71;64.34
72892;BME280;61032;50.782;6.818;2023-02-26T04:15:35;100748.16;;;1.77;64.53
72892;BME280;61032;50.782;6.818;2023-02-26T04:16:35;100734.06;;;1.80;64.02
72892;BME280;61032;50.782;6.818;2023-02-26T04:17:36;100736.22;;;1.78;64.07
72892;BME280;61032;50.782;6.818;2023-02-26T04:18:36;100743.31;;;1.84;63.97
72892;BME280;61032;50.782;6.818;2023-02-26T04:19:37;100735.13;;;1.74;63.70
72892;BME280;61032;50.782;6.818;2023-02-26T04:20:37;100742.69;;;1.72;64.46
72892;BME280;61032;50.782;6.818;2023-02-26T04:21:37;100743.22;;;1.69;64.88
72892;BME280;61032;50.782;6.818;2023-02-26T04:22:38;100739.44;;;1.70;64.53
72892;BME280;61032;50.782;6.818;2023-02-26T04:23:38;100739.97;;;1.62;65.25
72892;BME280;61032;50.782;6.818;2023-02-26T04:24:39;100744.84;;;1.70;63.81
72892;BME280;61032;50.782;6.818;2023-02-26T04:25:39;100740.53;;;1.64;64.53
72892;BME280;61032;50.782;6.818;2023-02-26T04:26:39;100743.47;;;1.57;63.12
72892;BME280;61032;50.782;6.818;2023-02-26T04:27:39;100746.22;;;1.72;64.37
72892;BME280;61032;50.782;6.818;2023-02-26T04:28:40;100742.09;;;1.55;63.34
72892;BME280;61032;50.782;6.818;2023-02-26T04:29:40;100738.25;;;1.41;64.56
72892;BME280;61032;50.782;6.818;2023-02-26T04:30:41;100743.13;;;1.44;64.59
72892;BME280;61032;50.782;6.818;2023-02-26T04:31:41;100745.66;;;1.60;64.45
72892;BME280;61032;50.782;6.818;2023-02-26T04:32:41;100746.75;;;1.69;63.77
72892;BME280;61032;50.782;6.818;2023-02-26T04:33:42;100744.63;;;1.77;63.70
72892;BME280;61032;50.782;6.818;2023-02-26T04:34:43;100744.38;;;1.83;63.25
72892;BME280;61032;50.782;6.818;2023-02-26T04:35:43;100733.81;;;1.92;62.26
72892;BME280;61032;50.782;6.818;2023-02-26T04:36:43;100741.69;;;1.93;62.45
72892;BME280;61032;50.782;6.818;2023-02-26T04:37:43;100743.31;;;1.84;62.32
72892;BME280;61032;50.782;6.818;2023-02-26T04:38:44;100742.75;;;1.82;62.93
72892;BME280;61032;50.782;6.818;2023-02-26T04:39:44;100745.47;;;1.82;63.03
72892;BME280;61032;50.782;6.818;2023-02-26T04:40:44;100747.03;;;1.73;62.73
72892;BME280;61032;50.782;6.818;2023-02-26T04:41:46;100745.69;;;1.65;63.48
72892;BME280;61032;50.782;6.818;2023-02-26T04:42:46;100739.16;;;1.66;63.63
72892;BME280;61032;50.782;6.818;2023-02-26T04:43:47;100743.22;;;1.69;63.23
72892;BME280;61032;50.782;6.818;2023-02-26T04:44:47;100756.25;;;1.72;62.67
72892;BME280;61032;50.782;6.818;2023-02-26T04:45:47;100749.75;;;1.73;63.04
72892;BME280;61032;50.782;6.818;2023-02-26T04:46:48;100750.00;;;1.66;62.94
72892;BME280;61032;50.782;6.818;2023-02-26T04:47:48;100756.47;;;1.60;63.35
72892;BME280;61032;50.782;6.818;2023-02-26T04:48:48;100765.47;;;1.66;63.31
72892;BME280;61032;50.782;6.818;2023-02-26T04:49:49;100761.69;;;1.77;63.45
72892;BME280;61032;50.782;6.818;2023-02-26T04:50:49;100761.97;;;1.76;63.34
72892;BME280;61032;50.782;6.818;2023-02-26T04:51:49;100763.31;;;1.73;63.02
72892;BME280;61032;50.782;6.818;2023-02-26T04:52:50;100767.34;;;1.70;63.23
72892;BME280;61032;50.782;6.818;2023-02-26T04:53:50;100765.47;;;1.66;62.70
72892;BME280;61032;50.782;6.818;2023-02-26T04:54:50;100770.31;;;1.69;62.53
72892;BME280;61032;50.782;6.818;2023-02-26T04:55:51;100769.25;;;1.70;62.53
72892;BME280;61032;50.782;6.818;2023-02-26T04:56:51;100768.44;;;1.69;63.49
72892;BME280;61032;50.782;6.818;2023-02-26T04:57:52;100771.41;;;1.68;62.33
72892;BME280;61032;50.782;6.818;2023-02-26T04:58:52;100776.84;;;1.73;62.36
72892;BME280;61032;50.782;6.818;2023-02-26T04:59:52;100771.66;;;1.61;63.16
72892;BME280;61032;50.782;6.818;2023-02-26T05:00:53;100776.81;;;1.63;63.08
72892;BME280;61032;50.782;6.818;2023-02-26T05:01:54;100782.22;;;1.63;63.11
72892;BME280;61032;50.782;6.818;2023-02-26T05:02:54;100783.84;;;1.59;62.78
72892;BME280;61032;50.782;6.818;2023-02-26T05:03:55;100783.28;;;1.57;63.07
72892;BME280;61032;50.782;6.818;2023-02-26T05:04:55;100783.22;;;1.42;62.99
72892;BME280;61032;50.782;6.818;2023-02-26T05:05:56;100785.09;;;1.41;63.52
72892;BME280;61032;50.782;6.818;2023-02-26T05:06:56;100783.34;;;1.25;63.42
72892;BME280;61032;50.782;6.818;2023-02-26T05:07:56;100782.28;;;1.26;63.81
72892;BME280;61032;50.782;6.818;2023-02-26T05:08:57;100789.66;;;1.35;63.75
72892;BME280;61032;50.782;6.818;2023-02-26T05:09:57;100791.78;;;1.28;63.12
72892;BME280;61032;50.782;6.818;2023-02-26T05:10:57;100785.28;;;1.24;64.08
72892;BME280;61032;50.782;6.818;2023-02-26T05:11:58;100793.44;;;1.34;63.11
72892;BME280;61032;50.782;6.818;2023-02-26T05:12:58;100792.06;;;1.32;63.52
72892;BME280;61032;50.782;6.818;2023-02-26T05:13:58;100797.78;;;1.35;63.78
72892;BME280;61032;50.782;6.818;2023-02-26T05:14:59;100793.72;;;1.33;63.49
72892;BME280;61032;50.782;6.818;2023-02-26T05:15:59;100798.34;;;1.37;63.33
72892;BME280;61032;50.782;6.818;2023-02-26T05:16:59;100796.50;;;1.43;62.90
72892;BME280;61032;50.782;6.818;2023-02-26T05:17:59;100796.78;;;1.52;62.58
72892;BME280;61032;50.782;6.818;2023-02-26T05:19:00;100796.50;;;1.48;62.70
72892;BME280;61032;50.782;6.818;2023-02-26T05:20:00;100793.00;;;1.53;63.03
72892;BME280;61032;50.782;6.818;2023-02-26T05:21:00;100797.09;;;1.55;62.17
72892;BME280;61032;50.782;6.818;2023-02-26T05:22:01;100804.13;;;1.56;62.19
72892;BME280;61032;50.782;6.818;2023-02-26T05:23:01;100804.72;;;1.63;62.49
72892;BME280;61032;50.782;6.818;2023-02-26T05:24:02;100796.34;;;1.70;62.30
72892;BME280;61032;50.782;6.818;2023-02-26T05:25:03;100802.34;;;1.77;61.79
72892;BME280;61032;50.782;6.818;2023-02-26T05:26:04;100804.53;;;1.80;61.27
72892;BME280;61032;50.782;6.818;2023-02-26T05:27:04;100808.88;;;1.81;61.37
72892;BME280;61032;50.782;6.818;2023-02-26T05:28:05;100811.00;;;1.74;61.95
72892;BME280;61032;50.782;6.818;2023-02-26T05:29:06;100801.19;;;1.68;61.99
72892;BME280;61032;50.782;6.818;2023-02-26T05:30:07;100806.09;;;1.66;61.91
72892;BME280;61032;50.782;6.818;2023-02-26T05:31:08;100804.69;;;1.58;62.11
72892;BME280;61032;50.782;6.818;2023-02-26T05:32:08;100807.41;;;1.58;62.57
72892;BME280;61032;50.782;6.818;2023-02-26T05:33:08;100812.84;;;1.63;61.57
72892;BME280;61032;50.782;6.818;2023-02-26T05:34:09;100804.72;;;1.68;61.93
72892;BME280;61032;50.782;6.818;2023-02-26T05:35:09;100810.44;;;1.72;61.94
72892;BME280;61032;50.782;6.818;2023-02-26T05:36:10;100809.84;;;1.60;61.40
72892;BME280;61032;50.782;6.818;2023-02-26T05:37:10;100816.28;;;1.44;61.87
72892;BME280;61032;50.782;6.818;2023-02-26T05:38:11;100820.34;;;1.51;61.85
72892;BME280;61032;50.782;6.818;2023-02-26T05:39:11;100822.03;;;1.57;62.33
72892;BME280;61032;50.782;6.818;2023-02-26T05:40:12;100822.50;;;1.49;61.89
72892;BME280;61032;50.782;6.818;2023-02-26T05:41:12;100825.22;;;1.49;62.01
72892;BME280;61032;50.782;6.818;2023-02-26T05:42:13;100825.50;;;1.53;62.13
72892;BME280;61032;50.782;6.818;2023-02-26T05:43:13;100818.97;;;1.49;61.72
72892;BME280;61032;50.782;6.818;2023-02-26T05:44:13;100826.03;;;1.45;62.09
72892;BME280;61032;50.782;6.818;2023-02-26T05:45:14;100823.31;;;1.50;61.81
72892;BME280;61032;50.782;6.818;2023-02-26T05:46:14;100824.69;;;1.52;61.59
72892;BME280;61032;50.782;6.818;2023-02-26T05:47:14;100831.75;;;1.53;61.09
72892;BME280;61032;50.782;6.818;2023-02-26T05:48:15;100841.47;;;1.49;61.93
72892;BME280;61032;50.782;6.818;2023-02-26T05:49:15;100833.59;;;1.48;61.58
72892;BME280;61032;50.782;6.818;2023-02-26T05:50:16;100830.97;;;1.58;61.48
72892;BME280;61032;50.782;6.818;2023-02-26T05:51:16;100832.59;;;1.59;61.65
72892;BME280;61032;50.782;6.818;2023-02-26T05:52:16;100834.50;;;1.58;61.72
72892;BME280;61032;50.782;6.818;2023-02-26T05:53:17;100847.19;;;1.53;61.73
72892;BME280;61032;50.782;6.818;2023-02-26T05:54:18;100842.84;;;1.52;61.49
72892;BME280;61032;50.782;6.818;2023-02-26T05:55:18;100848.63;;;1.23;62.02
72892;BME280;61032;50.782;6.818;2023-02-26T05:56:18;100836.88;;;1.13;62.39
72892;BME280;61032;50.782;6.818;2023-02-26T05:57:19;100844.75;;;1.14;62.39
72892;BME280;61032;50.782;6.818;2023-02-26T05:58:19;100852.06;;;1.14;63.20
72892;BME280;61032;50.782;6.818;2023-02-26T05:59:20;100848.84;;;1.17;62.77
72892;BME280;61032;50.782;6.818;2023-02-26T06:00:21;100848.28;;;1.15;63.24
72892;BME280;61032;50.782;6.818;2023-02-26T06:01:22;100850.25;;;1.24;63.22
72892;BME280;61032;50.782;6.818;2023-02-26T06:02:22;100850.78;;;1.26;62.16
72892;BME280;61032;50.782;6.818;2023-02-26T06:03:22;100858.91;;;1.26;62.28
72892;BME280;61032;50.782;6.818;2023-02-26T06:04:23;100855.53;;;1.41;62.64
72892;BME280;61032;50.782;6.818;2023-02-26T06:05:23;100852.81;;;1.46;61.68
72892;BME280;61032;50.782;6.818;2023-02-26T06:06:24;100848.00;;;1.53;61.42
72892;BME280;61032;50.782;6.818;2023-02-26T06:07:25;100849.13;;;1.57;61.45
72892;BME280;61032;50.782;6.818;2023-02-26T06:08:26;100853.25;;;1.70;61.16
72892;BME280;61032;50.782;6.818;2023-02-26T06:09:26;100863.00;;;1.71;61.66
72892;BME280;61032;50.782;6.818;2023-02-26T06:10:26;100862.47;;;1.74;60.83
72892;BME280;61032;50.782;6.818;2023-02-26T06:11:28;100864.91;;;1.70;60.88
72892;BME280;61032;50.782;6.818;2023-02-26T06:12:28;100866.22;;;1.68;61.23
72892;BME280;61032;50.782;6.818;2023-02-26T06:13:29;100863.81;;;1.71;61.06
72892;BME280;61032;50.782;6.818;2023-02-26T06:14:29;100861.88;;;1.67;61.41
72892;BME280;61032;50.782;6.818;2023-02-26T06:15:29;100859.94;;;1.57;61.16